Time;durP1;ratioP1;P1;durP2;ratioP2;P2;SDS_P1;SDS_P2;PMS_P1;PMS_P2;Temp;Humidity;BMP_temperature;BMP_pressure;BME280_temperature;BME280_humidity;BME280_pressure;Samples;Min_cycle;Max_cycle;Signal;HPM_P1;HPM_P2
2023/09/30 00:02:22;;;;;;;12.30;8.70;;;;;;;16.58;66.65;100318.59;131096;1253;107495;-78
2023/09/30 00:05:28;;;;;;;12.90;9.20;;;;;;;16.57;66.85;100317.29;131173;1264;107323;-78
2023/09/30 00:08:33;;;;;;;14.20;9.00;;;;;;;16.54;66.88;100315.83;131131;1257;107247;-78
2023/09/30 00:11:39;;;;;;;9.40;7.50;;;;;;;16.53;67.10;100315.60;131102;1251;106594;-76
2023/09/30 00:14:45;;;;;;;11.60;8.10;;;;;;;16.55;66.98;100318.23;131221;1254;107617;-76
2023/09/30 00:17:50;;;;;;;13.30;8.40;;;;;;;16.58;66.93;100318.41;131157;1254;107712;-76
2023/09/30 00:20:57;;;;;;;13.30;9.10;;;;;;;16.62;66.96;100323.85;131290;1251;107735;-76
2023/09/30 00:24:03;;;;;;;10.50;8.40;;;;;;;16.66;66.95;100323.52;131229;1263;107852;-76
2023/09/30 00:27:08;;;;;;;14.30;9.00;;;;;;;16.68;66.86;100321.64;131221;1251;107191;-76
2023/09/30 00:30:14;;;;;;;10.00;8.60;;;;;;;16.69;66.88;100318.39;131080;1251;106966;-76
2023/09/30 00:33:20;;;;;;;10.90;8.80;;;;;;;16.70;66.89;100308.45;131117;1251;106929;-76
2023/09/30 00:36:25;;;;;;;12.40;8.80;;;;;;;16.70;66.96;100309.06;131055;1254;107597;-77
2023/09/30 00:39:33;;;;;;;11.10;8.30;;;;;;;16.68;66.99;100309.21;131175;1255;106932;-76
2023/09/30 00:42:38;;;;;;;12.60;8.50;;;;;;;16.67;67.09;100310.11;131045;1256;106744;-76
2023/09/30 00:45:45;;;;;;;12.80;8.30;;;;;;;16.66;67.04;100304.13;131110;1254;108030;-76
2023/09/30 00:48:51;;;;;;;12.60;8.20;;;;;;;16.65;66.95;100305.45;131103;1251;239925;-76
2023/09/30 00:51:57;;;;;;;13.60;8.20;;;;;;;16.64;67.05;100304.36;131101;1263;106788;-76
2023/09/30 00:55:05;;;;;;;13.70;8.80;;;;;;;16.62;67.16;100307.85;131147;1251;106985;-76
2023/09/30 00:58:11;;;;;;;13.00;8.40;;;;;;;16.59;67.31;100304.27;131078;1264;106830;-76
2023/09/30 01:01:19;;;;;;;10.60;7.40;;;;;;;16.59;67.16;100302.77;131143;1254;107473;-76
2023/09/30 01:04:27;;;;;;;10.30;7.90;;;;;;;16.62;67.33;100298.50;131165;1266;107501;-77
2023/09/30 01:07:32;;;;;;;12.20;8.10;;;;;;;16.66;67.29;100301.39;131171;1251;106763;-77
2023/09/30 01:10:38;;;;;;;10.20;8.00;;;;;;;16.72;67.35;100299.80;131065;1255;107721;-76
2023/09/30 01:13:44;;;;;;;11.30;7.70;;;;;;;16.76;67.28;100300.58;131150;1251;107065;-76
2023/09/30 01:16:50;;;;;;;9.00;7.60;;;;;;;16.78;67.20;100295.76;131102;1264;107758;-76
2023/09/30 01:19:58;;;;;;;12.60;8.10;;;;;;;16.79;67.23;100296.52;131266;1250;107729;-76
2023/09/30 01:23:04;;;;;;;10.90;8.20;;;;;;;16.81;67.22;100294.71;131184;1264;107643;-76
2023/09/30 01:26:13;;;;;;;11.00;7.90;;;;;;;16.81;67.27;100297.98;131160;1252;106457;-76
2023/09/30 01:29:18;;;;;;;10.30;7.90;;;;;;;16.80;67.29;100297.72;131151;1251;107339;-76
2023/09/30 01:32:24;;;;;;;11.30;8.40;;;;;;;16.79;67.35;100296.17;131071;1252;108654;-76
2023/09/30 01:35:30;;;;;;;12.10;8.10;;;;;;;16.78;67.43;100294.02;131099;1254;107732;-77
2023/09/30 01:38:36;;;;;;;11.00;8.30;;;;;;;16.77;67.39;100293.21;131137;1254;106538;-75
2023/09/30 01:41:42;;;;;;;9.50;8.00;;;;;;;16.76;67.43;100291.42;131273;1254;107905;-76
2023/09/30 01:44:48;;;;;;;12.70;8.00;;;;;;;16.75;67.70;100291.87;131258;1251;106871;-76
2023/09/30 01:47:53;;;;;;;16.20;8.30;;;;;;;16.74;67.71;100284.14;131172;1263;107030;-76
2023/09/30 01:50:59;;;;;;;10.10;6.80;;;;;;;16.74;67.92;100286.75;131082;1255;107029;-77
2023/09/30 01:54:05;;;;;;;11.70;7.90;;;;;;;16.76;68.26;100290.10;131142;1251;107638;-76
2023/09/30 01:57:10;;;;;;;10.30;8.10;;;;;;;16.79;68.41;100289.96;131232;1253;107950;-77
2023/09/30 02:00:17;;;;;;;13.90;8.50;;;;;;;16.82;68.46;100289.38;131155;1255;107126;-76
2023/09/30 02:03:23;;;;;;;11.40;8.30;;;;;;;16.84;68.50;100292.16;131102;1250;106594;-78
2023/09/30 02:06:29;;;;;;;11.30;8.50;;;;;;;16.85;68.54;100280.72;131088;1252;107196;-77
2023/09/30 02:09:34;;;;;;;11.50;8.50;;;;;;;16.85;68.54;100281.42;131233;1254;107702;-76
2023/09/30 02:12:40;;;;;;;11.90;8.80;;;;;;;16.85;68.66;100275.16;131179;1251;106238;-77
2023/09/30 02:15:46;;;;;;;11.90;8.80;;;;;;;16.83;69.17;100281.65;131167;1254;106620;-76
2023/09/30 02:18:52;;;;;;;11.00;8.60;;;;;;;16.80;69.33;100279.95;131123;1254;107390;-76
2023/09/30 02:21:59;;;;;;;11.10;7.90;;;;;;;16.76;69.51;100282.17;131067;1254;108491;-77
2023/09/30 02:25:07;;;;;;;8.80;7.40;;;;;;;16.74;69.67;100278.02;131173;1251;106860;-76
2023/09/30 02:28:13;;;;;;;9.40;8.20;;;;;;;16.73;69.97;100282.19;131131;1250;108241;-76
2023/09/30 02:31:18;;;;;;;11.60;8.70;;;;;;;16.74;70.03;100280.62;131017;1256;107700;-77
2023/09/30 02:34:24;;;;;;;12.40;8.50;;;;;;;16.76;70.20;100281.34;131118;1251;107975;-76
2023/09/30 02:37:29;;;;;;;11.60;8.90;;;;;;;16.75;70.09;100281.95;131228;1254;107452;-76
2023/09/30 02:40:35;;;;;;;12.50;8.90;;;;;;;16.75;70.07;100282.00;131087;1253;107548;-76
2023/09/30 02:43:40;;;;;;;9.80;8.50;;;;;;;16.74;70.11;100278.10;131086;1254;107839;-76
2023/09/30 02:46:46;;;;;;;9.80;8.00;;;;;;;16.73;70.06;100281.45;131106;1254;106657;-76
2023/09/30 02:49:52;;;;;;;11.80;8.50;;;;;;;16.72;70.06;100282.39;131094;1251;107672;-76
2023/09/30 02:52:57;;;;;;;12.30;8.50;;;;;;;16.71;69.98;100281.27;131127;1250;107857;-76
2023/09/30 02:56:05;;;;;;;10.10;7.60;;;;;;;16.69;70.11;100281.45;131109;1254;106801;-76
2023/09/30 02:59:11;;;;;;;11.20;7.50;;;;;;;16.68;70.27;100277.38;131137;1254;106938;-76
2023/09/30 03:02:18;;;;;;;11.70;7.60;;;;;;;16.71;70.27;100279.48;131091;1257;106485;-76
2023/09/30 03:05:24;;;;;;;12.70;8.60;;;;;;;16.73;70.36;100289.58;131221;1250;107739;-76
2023/09/30 03:08:30;;;;;;;10.00;8.10;;;;;;;16.76;70.49;100294.95;131143;1254;107606;-76
2023/09/30 03:11:35;;;;;;;11.40;8.50;;;;;;;16.78;70.59;100295.23;131161;1254;107714;-76
2023/09/30 03:14:42;;;;;;;10.90;8.10;;;;;;;16.79;70.66;100291.54;131177;1250;106910;-75
2023/09/30 03:17:48;;;;;;;11.70;8.50;;;;;;;16.79;70.99;100293.90;131151;1254;108108;-76
2023/09/30 03:21:00;;;;;;;11.60;8.30;;;;;;;16.77;70.94;100294.08;131134;1263;108603;-76
2023/09/30 03:24:07;;;;;;;9.30;7.70;;;;;;;16.76;71.20;100292.83;131232;1252;107861;-76
2023/09/30 03:27:13;;;;;;;8.90;7.40;;;;;;;16.75;71.32;100294.02;131175;1254;107614;-75
2023/09/30 03:30:20;;;;;;;13.20;7.80;;;;;;;16.76;71.80;100291.34;131128;1254;108028;-77
2023/09/30 03:33:26;;;;;;;10.10;7.90;;;;;;;16.78;71.97;100287.75;131126;1254;108016;-76
2023/09/30 03:36:33;;;;;;;11.70;8.70;;;;;;;16.79;72.12;100290.76;131148;1266;108403;-76
2023/09/30 03:39:40;;;;;;;10.50;8.40;;;;;;;16.82;72.55;100283.66;131110;1251;108359;-76
2023/09/30 03:42:49;;;;;;;11.30;8.40;;;;;;;16.81;72.66;100280.12;131095;1254;107001;-76
2023/09/30 03:45:55;;;;;;;12.00;8.60;;;;;;;16.78;72.88;100274.77;131171;1250;107691;-76
2023/09/30 03:49:01;;;;;;;10.70;7.70;;;;;;;16.77;73.10;100277.78;131240;1250;106442;-76
2023/09/30 03:52:08;;;;;;;9.50;7.50;;;;;;;16.75;73.40;100277.19;131091;1254;107717;-76
2023/09/30 03:55:15;;;;;;;9.40;7.60;;;;;;;16.74;73.61;100272.83;131210;1254;107993;-76
2023/09/30 03:58:21;;;;;;;13.70;8.30;;;;;;;16.75;73.78;100268.89;131364;1254;107963;-76
2023/09/30 04:01:27;;;;;;;10.40;8.60;;;;;;;16.76;74.09;100261.36;131153;1254;107824;-76
2023/09/30 04:04:34;;;;;;;11.10;8.70;;;;;;;16.76;74.28;100256.55;131555;1251;107770;-76
2023/09/30 04:07:39;;;;;;;9.70;7.90;;;;;;;16.75;74.58;100252.40;131125;1254;106430;-76
2023/09/30 04:10:46;;;;;;;9.60;7.50;;;;;;;16.73;74.75;100252.77;131337;1254;107637;-76
2023/09/30 04:13:51;;;;;;;9.40;8.10;;;;;;;16.72;75.03;100252.70;131264;1249;107244;-76
2023/09/30 04:16:58;;;;;;;10.00;8.10;;;;;;;16.73;75.16;100253.91;131239;1251;106639;-76
2023/09/30 04:20:04;;;;;;;11.00;8.40;;;;;;;16.74;75.38;100256.08;131133;1251;106627;-76
2023/09/30 04:23:12;;;;;;;10.20;8.20;;;;;;;16.74;75.53;100260.75;131533;1254;107038;-76
2023/09/30 04:26:18;;;;;;;8.80;7.50;;;;;;;16.70;75.71;100281.83;131244;1253;108530;-76
2023/09/30 04:29:23;;;;;;;10.60;7.20;;;;;;;16.67;75.88;100285.70;131248;1253;107648;-76
2023/09/30 04:32:29;;;;;;;11.20;7.80;;;;;;;16.66;76.12;100284.66;131185;1254;105778;-77
2023/09/30 04:35:35;;;;;;;10.00;8.40;;;;;;;16.66;76.18;100286.69;131327;1254;107911;-77
2023/09/30 04:38:41;;;;;;;10.80;8.80;;;;;;;16.67;76.30;100284.65;131356;1250;107533;-75
2023/09/30 04:41:46;;;;;;;11.10;9.10;;;;;;;16.69;76.42;100286.30;131253;1250;106214;-75
2023/09/30 04:44:52;;;;;;;10.80;7.90;;;;;;;16.68;76.62;100290.05;131361;1251;106230;-76
2023/09/30 04:47:58;;;;;;;8.10;7.20;;;;;;;16.66;76.75;100292.27;131339;1254;106394;-76
2023/09/30 04:51:07;;;;;;;10.30;8.10;;;;;;;16.65;76.96;100297.20;131215;1251;106889;-76
2023/09/30 04:54:13;;;;;;;10.40;8.30;;;;;;;16.66;77.16;100299.98;131440;1254;109298;-76
2023/09/30 04:57:19;;;;;;;11.80;8.90;;;;;;;16.68;77.21;100307.60;131376;1250;106773;-76
2023/09/30 05:00:25;;;;;;;10.90;8.50;;;;;;;16.68;77.47;100314.69;131425;1253;107754;-76
2023/09/30 05:03:31;;;;;;;9.30;8.10;;;;;;;16.66;77.57;100321.70;131276;1250;107170;-77
2023/09/30 05:06:37;;;;;;;9.40;7.80;;;;;;;16.65;77.89;100324.31;131110;1254;106712;-76
2023/09/30 05:09:43;;;;;;;9.90;8.10;;;;;;;16.63;78.12;100330.18;131135;1251;107459;-76
2023/09/30 05:12:48;;;;;;;11.60;9.00;;;;;;;16.64;78.21;100333.42;131654;1250;106570;-76
2023/09/30 05:15:54;;;;;;;11.80;9.40;;;;;;;16.68;78.38;100333.21;135282;1249;108388;-77
2023/09/30 05:19:00;;;;;;;12.30;8.80;;;;;;;16.71;78.48;100332.46;135345;1250;108923;-76
2023/09/30 05:22:05;;;;;;;10.10;7.90;;;;;;;16.72;78.78;100330.70;135289;1249;106521;-76
2023/09/30 05:25:11;;;;;;;11.40;7.70;;;;;;;16.72;79.04;100336.60;134615;1250;106817;-76
2023/09/30 05:28:17;;;;;;;11.40;8.60;;;;;;;16.75;78.99;100340.95;131161;1253;107984;-76
2023/09/30 05:31:22;;;;;;;11.40;8.60;;;;;;;16.80;79.20;100343.37;130985;1253;107667;-75
2023/09/30 05:34:28;;;;;;;10.30;9.20;;;;;;;16.83;79.31;100343.30;131019;1251;105917;-76
2023/09/30 05:37:34;;;;;;;10.90;9.80;;;;;;;16.87;79.46;100344.51;131227;1266;106459;-76
2023/09/30 05:40:41;;;;;;;11.50;9.00;;;;;;;16.87;79.66;100351.23;131860;1253;106588;-76
2023/09/30 05:43:47;;;;;;;11.90;8.90;;;;;;;16.87;79.80;100353.22;131338;1250;106564;-76
2023/09/30 05:46:53;;;;;;;10.90;9.00;;;;;;;16.90;79.97;100349.92;130959;1254;106530;-76
2023/09/30 05:49:58;;;;;;;11.50;9.00;;;;;;;16.93;80.26;100342.73;131064;1254;106671;-79
2023/09/30 05:53:05;;;;;;;12.80;9.40;;;;;;;16.96;80.40;100345.88;131094;1251;107557;-78
2023/09/30 05:56:11;;;;;;;10.70;8.80;;;;;;;17.00;80.64;100349.35;131056;1253;108312;-80
2023/09/30 05:59:16;;;;;;;11.90;8.90;;;;;;;17.01;80.79;100348.41;131040;1254;107757;-78
2023/09/30 06:02:22;;;;;;;10.10;8.70;;;;;;;17.04;81.09;100347.94;131053;1254;108173;-78
2023/09/30 06:05:30;;;;;;;11.20;9.20;;;;;;;17.07;81.17;100354.66;131100;1250;107500;-78
2023/09/30 06:08:37;;;;;;;11.20;9.30;;;;;;;17.11;81.31;100357.80;131094;1263;106914;-78
2023/09/30 06:11:42;;;;;;;10.60;9.00;;;;;;;17.14;81.44;100359.81;131360;1250;106843;-78
2023/09/30 06:14:48;;;;;;;11.60;8.60;;;;;;;17.18;81.59;100356.45;131073;1254;107789;-78
2023/09/30 06:17:55;;;;;;;11.40;9.40;;;;;;;17.21;81.78;100364.39;131165;1250;108423;-78
2023/09/30 06:21:00;;;;;;;11.40;8.90;;;;;;;17.26;81.97;100362.88;131088;1251;107697;-78
2023/09/30 06:24:07;;;;;;;11.20;9.90;;;;;;;17.33;82.10;100360.85;131194;1251;108737;-78
2023/09/30 06:27:13;;;;;;;11.80;8.90;;;;;;;17.37;82.30;100362.21;131269;1250;108518;-78
2023/09/30 06:30:20;;;;;;;10.20;8.70;;;;;;;17.42;82.35;100360.96;131123;1251;107912;-79
2023/09/30 06:33:29;;;;;;;10.80;8.90;;;;;;;17.46;82.53;100362.95;131040;1250;105741;-79
2023/09/30 06:36:34;;;;;;;9.90;8.90;;;;;;;17.52;82.77;100364.36;131311;1251;106572;-78
2023/09/30 06:39:40;;;;;;;12.80;9.50;;;;;;;17.58;82.91;100365.73;131391;1257;106481;-80
2023/09/30 06:42:46;;;;;;;12.50;9.00;;;;;;;17.64;83.05;100375.78;131338;1250;106517;-78
2023/09/30 06:45:51;;;;;;;12.20;8.60;;;;;;;17.69;83.26;100382.13;131139;1253;106858;-76
2023/09/30 06:48:57;;;;;;;11.90;8.90;;;;;;;17.75;83.34;100382.08;131088;1254;107062;-78
2023/09/30 06:52:03;;;;;;;10.90;8.70;;;;;;;17.82;83.58;100385.64;131035;1253;105756;-78
2023/09/30 06:55:10;;;;;;;12.40;9.70;;;;;;;17.91;83.63;100388.73;131068;1254;106588;-78
2023/09/30 06:58:20;;;;;;;11.60;9.00;;;;;;;17.98;83.76;100390.45;131073;1250;107655;-82
2023/09/30 07:01:26;;;;;;;10.70;8.80;;;;;;;18.02;83.86;100395.77;131051;1250;107735;-79
2023/09/30 07:04:32;;;;;;;9.90;8.70;;;;;;;18.06;83.95;100402.05;131156;1250;107454;-81
2023/09/30 07:07:39;;;;;;;11.10;9.90;;;;;;;18.10;84.06;100401.77;131142;1251;106571;-80
2023/09/30 07:10:48;;;;;;;12.60;9.80;;;;;;;18.12;84.02;100399.96;131110;1253;107727;-79
2023/09/30 07:13:54;;;;;;;11.30;9.50;;;;;;;18.14;84.19;100399.22;131031;1255;106408;-78
2023/09/30 07:17:00;;;;;;;12.50;9.50;;;;;;;18.16;84.32;100401.85;130995;1254;106564;-78
2023/09/30 07:20:09;;;;;;;11.10;9.40;;;;;;;18.18;84.54;100403.70;131040;1254;108568;-78
2023/09/30 07:23:15;;;;;;;14.40;10.20;;;;;;;18.24;84.90;100402.93;131178;1254;107624;-78
2023/09/30 07:26:27;;;;;;;13.40;10.80;;;;;;;18.33;84.93;100403.61;131134;1254;106896;-78
2023/09/30 07:29:33;;;;;;;13.60;10.70;;;;;;;18.38;85.68;100408.73;131048;1254;108765;-78
2023/09/30 07:32:38;;;;;;;13.30;10.30;;;;;;;18.40;85.12;100410.83;131294;1253;107875;-79
2023/09/30 07:35:44;;;;;;;12.30;10.50;;;;;;;18.39;85.46;100413.03;131156;1254;107642;-80
2023/09/30 07:38:50;;;;;;;12.60;10.70;;;;;;;18.37;85.46;100414.10;131145;1250;109056;-79
2023/09/30 07:41:56;;;;;;;14.10;11.00;;;;;;;18.36;85.54;100418.38;132298;1250;107488;-81
2023/09/30 07:45:03;;;;;;;14.50;11.30;;;;;;;18.34;85.62;100417.29;131054;1254;107793;-77
2023/09/30 07:48:11;;;;;;;15.10;11.60;;;;;;;18.31;85.73;100417.98;131117;1255;108003;-78
2023/09/30 07:51:16;;;;;;;13.50;12.10;;;;;;;18.27;86.08;100420.11;131040;1254;108701;-78
2023/09/30 07:54:22;;;;;;;15.30;12.60;;;;;;;18.18;86.38;100422.61;131008;1251;108631;-82
2023/09/30 07:57:27;;;;;;;15.10;12.20;;;;;;;18.13;87.56;100430.33;130969;1255;108164;-77
2023/09/30 08:00:33;;;;;;;16.50;12.90;;;;;;;18.08;87.77;100434.08;131547;1250;108770;-78
2023/09/30 08:03:39;;;;;;;15.60;12.70;;;;;;;18.05;87.92;100433.45;131727;1253;107641;-80
2023/09/30 08:06:45;;;;;;;15.90;12.50;;;;;;;18.03;88.70;100440.09;131178;1253;107306;-79
2023/09/30 08:09:51;;;;;;;14.50;12.10;;;;;;;17.99;89.89;100447.66;131874;1250;108177;-83
2023/09/30 08:12:58;;;;;;;14.50;12.60;;;;;;;17.95;89.81;100454.39;131493;1251;108628;-78
2023/09/30 08:16:03;;;;;;;15.80;13.30;;;;;;;17.92;90.15;100450.16;131083;1253;108017;-78
2023/09/30 08:19:09;;;;;;;16.30;12.90;;;;;;;17.91;89.69;100455.44;131157;1254;106553;-79
2023/09/30 08:22:15;;;;;;;15.70;12.20;;;;;;;17.91;90.90;100461.38;131066;1254;106705;-78
2023/09/30 08:25:20;;;;;;;16.30;12.70;;;;;;;17.90;91.78;100466.04;131105;1254;109056;-78
2023/09/30 08:28:26;;;;;;;18.30;13.20;;;;;;;17.87;93.18;100469.16;131303;1251;108663;-79
2023/09/30 08:31:31;;;;;;;14.70;12.60;;;;;;;17.84;92.43;100473.98;131137;1255;107711;-79
2023/09/30 08:34:37;;;;;;;15.40;12.50;;;;;;;17.86;93.02;100475.30;131052;1254;106715;-78
2023/09/30 08:37:42;;;;;;;16.90;11.90;;;;;;;17.83;92.40;100477.98;131145;1254;107559;-81
2023/09/30 08:40:50;;;;;;;14.60;10.90;;;;;;;17.84;91.65;100481.46;131125;1251;107583;-82
2023/09/30 08:44:00;;;;;;;12.50;10.30;;;;;;;17.85;91.89;100484.77;131209;1254;107674;-77
2023/09/30 08:47:06;;;;;;;11.60;9.30;;;;;;;17.85;92.10;100491.08;131057;1253;106791;-76
2023/09/30 08:50:13;;;;;;;12.30;8.70;;;;;;;17.86;91.89;100489.88;131043;1254;106403;-76
2023/09/30 08:53:20;;;;;;;12.10;8.00;;;;;;;17.91;92.39;100491.05;131255;1254;107765;-77
2023/09/30 08:56:28;;;;;;;11.30;8.30;;;;;;;18.03;92.27;100497.33;131142;1251;107646;-77
2023/09/30 08:59:38;;;;;;;9.60;7.00;;;;;;;18.11;91.61;100504.52;131051;1254;107742;-76
2023/09/30 09:02:44;;;;;;;10.40;6.40;;;;;;;18.17;91.56;100508.31;131262;1254;106875;-74
2023/09/30 09:05:57;;;;;;;9.70;6.30;;;;;;;18.17;91.26;100512.84;131081;1250;106752;-79
2023/09/30 09:09:15;;;;;;;;;;;;;;;18.27;90.86;100506.55;131232;1253;106948;-81
2023/09/30 09:12:25;;;;;;;9.00;5.20;;;;;;;18.36;90.59;100514.39;131476;1250;108108;-81
2023/09/30 09:15:31;;;;;;;6.90;5.20;;;;;;;18.31;90.31;100520.42;131648;1253;107743;-80
2023/09/30 09:18:37;;;;;;;9.30;6.10;;;;;;;18.29;90.37;100525.89;131431;1253;106628;-82
2023/09/30 09:21:56;;;;;;;7.60;5.10;;;;;;;18.32;90.10;100523.34;131240;1251;106729;-79
2023/09/30 09:25:02;;;;;;;8.40;4.80;;;;;;;18.38;90.06;100521.42;131727;1254;106943;-80
2023/09/30 09:28:08;;;;;;;8.00;4.50;;;;;;;18.44;89.63;100525.73;131275;1254;107655;-81
2023/09/30 09:31:26;;;;;;;6.80;3.90;;;;;;;18.43;88.74;100521.98;131865;1253;107119;-79
2023/09/30 09:34:32;;;;;;;5.50;3.30;;;;;;;18.45;88.59;100532.34;131228;1253;108279;-80
2023/09/30 09:37:38;;;;;;;6.60;3.60;;;;;;;18.51;88.53;100536.59;131148;1253;107684;-80
2023/09/30 09:40:44;;;;;;;5.90;2.70;;;;;;;18.55;87.68;100544.81;131291;1253;107604;-78
2023/09/30 09:43:51;;;;;;;4.60;2.40;;;;;;;18.53;86.76;100542.21;131011;1251;107498;-78
2023/09/30 09:46:58;;;;;;;4.40;2.60;;;;;;;18.56;85.82;100545.32;131019;1253;108432;-79
2023/09/30 09:50:06;;;;;;;4.20;2.40;;;;;;;18.67;85.62;100543.52;131050;1256;106509;-79
2023/09/30 09:53:14;;;;;;;3.50;2.20;;;;;;;18.85;85.70;100541.55;131025;1253;106620;-79
2023/09/30 09:56:22;;;;;;;4.60;2.60;;;;;;;19.00;85.55;100545.84;131208;1253;107626;-83
2023/09/30 09:59:31;;;;;;;3.90;2.30;;;;;;;19.14;84.00;100551.30;131271;1254;106821;-82
2023/09/30 10:02:40;;;;;;;4.60;2.40;;;;;;;19.23;82.54;100552.27;131209;1251;106708;-81
2023/09/30 10:05:46;;;;;;;3.90;2.40;;;;;;;19.27;80.30;100556.83;131244;1254;107744;-81
2023/09/30 10:08:53;;;;;;;4.10;2.20;;;;;;;19.33;80.62;100562.73;131137;1254;106853;-81
2023/09/30 10:12:03;;;;;;;5.40;2.00;;;;;;;19.43;81.50;100561.47;131289;1253;106929;-81
2023/09/30 10:15:41;;;;;;;5.30;2.40;;;;;;;19.53;79.61;100572.23;131163;1253;108290;-79
2023/09/30 10:19:10;;;;;;;4.10;2.30;;;;;;;19.46;78.61;100576.83;131107;1255;108829;-78
2023/09/30 10:22:25;;;;;;;4.30;2.40;;;;;;;19.30;78.74;100576.05;131014;1256;107488;-78
2023/09/30 10:25:41;;;;;;;4.40;2.40;;;;;;;19.25;79.80;100582.30;131241;1253;108746;-79
2023/09/30 10:28:49;;;;;;;6.10;2.60;;;;;;;19.22;77.96;100582.65;131094;1250;106928;-77
2023/09/30 10:31:55;;;;;;;5.10;2.50;;;;;;;19.18;78.82;100583.40;131013;1256;108024;-78
2023/09/30 10:35:01;;;;;;;4.30;2.10;;;;;;;19.16;78.86;100590.53;130978;1254;107695;-78
2023/09/30 10:38:37;;;;;;;5.20;2.40;;;;;;;18.98;78.02;100590.91;131039;1254;106747;-78
2023/09/30 10:41:53;;;;;;;5.20;2.70;;;;;;;18.76;78.21;100597.29;131053;1253;107192;-78
2023/09/30 10:44:58;;;;;;;6.10;2.60;;;;;;;18.61;78.08;100603.77;131048;1251;106750;-77
2023/09/30 10:48:37;;;;;;;6.00;3.10;;;;;;;18.54;78.58;100607.13;131002;1254;107581;-79
2023/09/30 10:51:43;;;;;;;5.50;2.30;;;;;;;18.47;78.96;100604.16;131132;1250;107437;-78
2023/09/30 10:54:51;;;;;;;6.10;2.40;;;;;;;18.49;78.40;100609.04;131317;1250;107473;-80
2023/09/30 10:57:56;;;;;;;6.00;2.30;;;;;;;18.67;78.43;100610.70;131171;1251;106826;-79
2023/09/30 11:01:04;;;;;;;6.10;2.30;;;;;;;18.86;76.80;100609.52;131051;1254;107009;-78
2023/09/30 11:04:10;;;;;;;6.10;2.20;;;;;;;18.98;76.75;100614.80;130958;1253;107662;-77
2023/09/30 11:07:23;;;;;;;6.30;2.70;;;;;;;19.04;76.47;100620.36;130949;1260;108753;-77
2023/09/30 11:10:29;;;;;;;7.10;3.30;;;;;;;19.06;76.56;100625.86;131245;1254;107385;-78
2023/09/30 11:13:35;;;;;;;6.10;2.70;;;;;;;19.07;74.95;100628.08;131235;1257;107461;-78
2023/09/30 11:16:45;;;;;;;6.10;2.20;;;;;;;19.16;75.12;100614.89;131048;1254;108311;-79
2023/09/30 11:19:52;;;;;;;5.60;2.60;;;;;;;19.19;72.99;100621.44;131288;1250;108123;-79
2023/09/30 11:22:58;;;;;;;5.80;2.50;;;;;;;19.16;72.04;100621.00;131069;1251;106553;-79
2023/09/30 11:26:04;;;;;;;7.00;2.40;;;;;;;19.09;71.67;100618.52;131085;1250;108734;-79
2023/09/30 11:29:13;;;;;;;7.10;2.60;;;;;;;18.93;71.00;100622.38;131260;1253;107525;-79
2023/09/30 11:32:27;;;;;;;5.30;2.40;;;;;;;18.75;72.21;100622.08;131927;1254;107860;-77
2023/09/30 11:35:32;;;;;;;7.20;2.40;;;;;;;18.72;71.54;100624.29;131152;1253;106825;-79
2023/09/30 11:38:38;;;;;;;6.60;2.40;;;;;;;18.74;72.03;100626.02;130991;1251;106652;-77
2023/09/30 11:41:44;;;;;;;5.50;2.30;;;;;;;18.80;72.29;100617.00;131084;1253;108564;-77
2023/09/30 11:44:51;;;;;;;5.30;2.30;;;;;;;18.87;71.48;100623.17;131038;1254;107783;-77
2023/09/30 11:47:58;;;;;;;6.00;2.30;;;;;;;18.79;70.66;100626.44;130995;1250;108354;-77
2023/09/30 11:51:04;;;;;;;5.10;2.30;;;;;;;18.64;69.66;100633.27;131004;1263;107468;-77
2023/09/30 11:54:11;;;;;;;4.40;2.00;;;;;;;18.67;70.83;100625.84;131264;1253;107947;-77
2023/09/30 11:57:18;;;;;;;4.80;2.20;;;;;;;18.81;69.83;100620.75;131008;1253;106651;-77
2023/09/30 12:00:24;;;;;;;5.60;2.90;;;;;;;18.91;69.66;100617.50;131010;1263;107926;-77
2023/09/30 12:03:29;;;;;;;4.80;2.20;;;;;;;18.85;67.09;100629.19;131006;1256;107134;-77
2023/09/30 12:06:38;;;;;;;5.10;2.40;;;;;;;18.69;63.93;100636.20;130977;1254;107596;-76
2023/09/30 12:09:43;;;;;;;7.60;2.30;;;;;;;18.56;64.07;100630.96;131059;1257;109069;-78
2023/09/30 12:12:49;;;;;;;4.60;2.10;;;;;;;18.53;64.64;100630.86;131053;1250;107575;-78
2023/09/30 12:15:55;;;;;;;5.20;1.90;;;;;;;18.69;66.57;100615.84;130979;1255;107691;-77
2023/09/30 12:19:00;;;;;;;4.50;2.20;;;;;;;18.85;64.76;100619.21;130979;1266;107825;-77
2023/09/30 12:22:06;;;;;;;5.80;1.90;;;;;;;18.89;63.64;100628.09;130993;1254;106924;-78
2023/09/30 12:25:12;;;;;;;5.90;2.10;;;;;;;18.90;61.35;100632.34;131003;1257;107943;-77
2023/09/30 12:28:17;;;;;;;5.20;2.10;;;;;;;18.97;61.69;100617.83;130970;1256;108602;-78
2023/09/30 12:31:24;;;;;;;6.40;2.40;;;;;;;19.04;61.59;100624.15;131043;1251;106478;-78
2023/09/30 12:34:30;;;;;;;5.80;2.00;;;;;;;19.13;61.72;100626.83;130984;1255;106649;-78
2023/09/30 12:37:38;;;;;;;7.10;2.70;;;;;;;19.17;59.43;100633.09;130961;1253;106929;-78
2023/09/30 12:40:43;;;;;;;6.70;2.20;;;;;;;19.15;57.13;100631.41;131120;1256;106631;-78
2023/09/30 12:43:49;;;;;;;7.60;2.50;;;;;;;19.19;58.91;100632.84;131297;1255;106686;-79
2023/09/30 12:46:55;;;;;;;4.00;1.80;;;;;;;19.18;58.36;100633.49;131036;1254;108237;-78
2023/09/30 12:50:00;;;;;;;4.90;2.00;;;;;;;19.20;59.05;100631.94;130798;1255;164583;-78
2023/09/30 12:53:06;;;;;;;6.10;2.00;;;;;;;19.22;57.27;100634.95;130926;1256;107915;-78
2023/09/30 12:56:12;;;;;;;6.10;3.00;;;;;;;19.22;57.08;100632.31;130787;1256;106670;-79
2023/09/30 12:59:19;;;;;;;10.60;2.30;;;;;;;19.23;57.63;100632.69;130960;1256;107690;-79
2023/09/30 13:02:25;;;;;;;6.80;2.10;;;;;;;19.22;55.67;100633.65;131052;1256;106875;-79
2023/09/30 13:05:31;;;;;;;4.90;2.00;;;;;;;19.21;54.33;100635.02;130912;1256;107167;-79
2023/09/30 13:08:36;;;;;;;6.20;2.30;;;;;;;19.19;54.70;100640.63;131026;1254;107291;-80
2023/09/30 13:11:42;;;;;;;7.30;2.30;;;;;;;19.12;54.83;100651.66;131101;1255;106960;-80
2023/09/30 13:14:48;;;;;;;4.50;2.30;;;;;;;19.05;56.54;100643.38;131038;1251;107723;-77
2023/09/30 13:17:53;;;;;;;9.50;2.30;;;;;;;19.01;55.10;100647.02;131049;1253;106494;-78
2023/09/30 13:20:59;;;;;;;6.40;2.30;;;;;;;18.92;53.64;100652.49;131078;1256;106666;-80
2023/09/30 13:24:07;;;;;;;6.50;2.20;;;;;;;18.84;53.96;100643.71;131039;1256;106859;-78
2023/09/30 13:27:15;;;;;;;6.20;2.20;;;;;;;18.79;53.85;100637.09;130952;1254;107713;-83
2023/09/30 13:30:22;;;;;;;8.30;2.90;;;;;;;18.76;54.70;100637.50;131016;1256;107731;-83
2023/09/30 13:33:28;;;;;;;6.60;2.30;;;;;;;18.74;54.15;100641.27;130990;1256;107579;-83
2023/09/30 13:36:34;;;;;;;5.30;2.30;;;;;;;18.76;55.45;100648.48;131048;1256;108415;-82
2023/09/30 13:39:40;;;;;;;8.60;3.20;;;;;;;18.84;53.97;100653.61;131057;1253;106516;-82
2023/09/30 13:42:46;;;;;;;7.20;2.60;;;;;;;18.91;53.51;100649.15;131148;1253;107552;-80
2023/09/30 13:45:52;;;;;;;12.40;6.50;;;;;;;18.92;53.17;100656.00;131371;1254;107955;-80
2023/09/30 13:48:58;;;;;;;13.60;6.90;;;;;;;18.90;53.35;100654.68;131143;1251;107560;-80
2023/09/30 13:52:04;;;;;;;7.60;2.70;;;;;;;18.88;53.19;100653.27;131316;1256;107379;-80
2023/09/30 13:55:10;;;;;;;13.70;9.10;;;;;;;18.83;52.84;100650.31;131179;1256;108660;-80
2023/09/30 13:58:15;;;;;;;9.40;2.80;;;;;;;18.84;53.50;100649.87;130981;1262;106467;-79
2023/09/30 14:01:21;;;;;;;5.60;2.50;;;;;;;18.78;52.30;100655.00;131036;1254;106692;-80
2023/09/30 14:04:27;;;;;;;7.40;3.50;;;;;;;18.77;52.45;100650.98;131032;1256;106721;-80